Time;durP1;ratioP1;P1;durP2;ratioP2;P2;SDS_P1;SDS_P2;PMS_P1;PMS_P2;Temp;Humidity;BMP_temperature;BMP_pressure;BME280_temperature;BME280_humidity;BME280_pressure;Samples;Min_cycle;Max_cycle;Signal;HPM_P1;HPM_P2
2022/10/20 00:01:34;;;;;;;6.30;3.37;;;13.50;68.00;;;;;;5090301;28;20229;-59
2022/10/20 00:04:00;;;;;;;5.60;3.00;;;13.60;68.50;;;;;;5114799;28;20208;-59
2022/10/20 00:06:28;;;;;;;6.67;3.43;;;13.60;68.10;;;;;;5076445;28;20197;-60
2022/10/20 00:08:56;;;;;;;5.53;3.37;;;13.40;68.40;;;;;;5108609;28;20203;-60
2022/10/20 00:11:23;;;;;;;6.93;3.87;;;13.50;68.70;;;;;;5107690;28;20196;-59
2022/10/20 00:13:50;;;;;;;5.80;3.87;;;13.50;68.70;;;;;;5088760;28;20189;-59
2022/10/20 00:16:16;;;;;;;8.30;3.57;;;13.60;68.90;;;;;;5083083;28;20200;-59
2022/10/20 00:18:43;;;;;;;4.40;3.00;;;13.60;68.60;;;;;;5105190;28;20196;-59
2022/10/20 00:21:14;;;;;;;8.63;3.40;;;13.60;68.10;;;;;;5092085;28;20200;-59
2022/10/20 00:23:40;;;;;;;3.07;2.80;;;13.50;67.60;;;;;;5090755;28;20267;-60
2022/10/20 00:26:12;;;;;;;6.80;3.23;;;13.50;67.50;;;;;;5080916;28;20282;-59
2022/10/20 00:28:38;;;;;;;5.40;3.10;;;13.40;67.10;;;;;;5095080;28;20176;-59
2022/10/20 00:31:05;;;;;;;6.97;2.87;;;13.40;67.80;;;;;;5086842;28;20211;-59
2022/10/20 00:33:31;;;;;;;5.00;2.70;;;13.30;68.00;;;;;;5090368;28;20184;-59
2022/10/20 00:35:58;;;;;;;9.50;3.53;;;13.30;68.30;;;;;;5086652;28;20216;-59
2022/10/20 00:38:24;;;;;;;3.93;2.73;;;13.20;68.10;;;;;;5065334;28;20201;-59
2022/10/20 00:40:50;;;;;;;7.07;3.10;;;13.20;68.20;;;;;;5083556;28;20264;-59
2022/10/20 00:43:16;;;;;;;6.17;3.37;;;13.20;68.50;;;;;;5062582;28;20216;-60
2022/10/20 00:45:48;;;;;;;7.57;2.70;;;13.20;68.30;;;;;;5095569;28;20207;-60
2022/10/20 00:48:18;;;;;;;7.67;3.27;;;13.20;68.70;;;;;;5092735;28;20386;-59
2022/10/20 00:50:53;;;;;;;4.93;3.87;;;13.30;68.70;;;;;;5086412;28;20181;-59
2022/10/20 00:53:21;;;;;;;4.07;3.10;;;13.30;68.70;;;;;;5092564;28;20185;-59
2022/10/20 00:55:50;;;;;;;5.57;2.97;;;13.30;68.10;;;;;;5093714;28;20193;-59
2022/10/20 00:58:16;;;;;;;6.00;2.53;;;13.30;69.00;;;;;;5091496;28;20197;-59
2022/10/20 01:00:44;;;;;;;4.73;2.90;;;13.20;69.30;;;;;;5078879;28;20280;-59
2022/10/20 01:03:24;;;;;;;3.33;3.03;;;13.30;68.90;;;;;;5086124;28;20186;-59
2022/10/20 01:05:50;;;;;;;4.70;2.90;;;13.30;68.60;;;;;;5088963;28;20191;-59
2022/10/20 01:08:15;;;;;;;4.47;3.07;;;13.30;68.40;;;;;;5084372;28;20264;-59
2022/10/20 01:10:58;;;;;;;5.83;2.83;;;13.30;68.00;;;;;;5093030;28;20188;-59
2022/10/20 01:13:52;;;;;;;6.37;3.50;;;13.30;68.10;;;;;;5116631;28;20176;-59
2022/10/20 01:16:42;;;;;;;5.60;3.07;;;13.30;68.00;;;;;;5080786;28;20192;-59
2022/10/20 01:19:27;;;;;;;2.60;2.37;;;13.30;67.70;;;;;;5099085;28;20181;-60
2022/10/20 01:22:15;;;;;;;4.40;2.83;;;13.30;67.80;;;;;;5096614;28;20205;-60
2022/10/20 01:25:07;;;;;;;4.50;2.73;;;13.30;68.20;;;;;;5091754;28;20230;-60
2022/10/20 01:27:44;;;;;;;4.60;2.63;;;13.20;67.60;;;;;;5095201;28;20221;-59
2022/10/20 01:30:14;;;;;;;14.00;3.03;;;13.20;67.60;;;;;;5105391;28;20192;-59
2022/10/20 01:32:48;;;;;;;9.43;3.30;;;13.30;67.40;;;;;;5098911;28;20276;-59
2022/10/20 01:35:38;;;;;;;7.90;2.77;;;13.30;67.20;;;;;;5086359;28;20181;-60
2022/10/20 01:38:07;;;;;;;6.33;3.00;;;13.20;66.80;;;;;;5098220;28;20196;-59
2022/10/20 01:40:42;;;;;;;7.20;3.33;;;13.20;66.40;;;;;;5111802;28;20675;-59
2022/10/20 01:43:12;;;;;;;5.20;2.93;;;13.00;66.00;;;;;;5088540;28;20259;-59
2022/10/20 01:45:43;;;;;;;6.70;2.70;;;13.00;67.00;;;;;;5097725;28;20182;-59
2022/10/20 01:48:11;;;;;;;4.57;2.50;;;13.00;67.50;;;;;;5105433;28;20237;-59
2022/10/20 01:50:38;;;;;;;2.67;2.47;;;13.10;66.90;;;;;;5078289;28;20185;-60
2022/10/20 01:53:05;;;;;;;3.13;2.43;;;13.00;67.00;;;;;;5096219;28;20185;-59
2022/10/20 01:55:31;;;;;;;10.77;3.00;;;13.10;67.30;;;;;;5085510;28;20184;-59
2022/10/20 01:58:42;;;;;;;5.20;2.47;;;13.10;67.00;;;;;;5112840;28;20246;-59
2022/10/20 02:01:32;;;;;;;2.67;2.47;;;13.10;67.10;;;;;;5065991;28;20224;-59
2022/10/20 02:04:01;;;;;;;4.47;3.00;;;13.10;67.10;;;;;;5103951;28;20181;-59
2022/10/20 02:06:44;;;;;;;4.43;2.57;;;13.10;66.70;;;;;;5081118;28;20254;-59
2022/10/20 02:09:19;;;;;;;2.67;2.47;;;13.10;66.30;;;;;;5098560;28;20189;-59
2022/10/20 02:11:53;;;;;;;6.30;2.83;;;13.00;66.50;;;;;;5106166;28;20236;-59
2022/10/20 02:14:20;;;;;;;5.07;2.20;;;13.00;67.00;;;;;;5098810;28;20210;-59
2022/10/20 02:16:49;;;;;;;4.97;2.93;;;13.00;67.20;;;;;;5075979;28;20215;-59
2022/10/20 02:19:20;;;;;;;4.20;2.63;;;13.00;67.50;;;;;;5095726;28;20236;-60
2022/10/20 02:21:47;;;;;;;8.23;2.73;;;13.00;67.30;;;;;;5113723;28;20216;-60
2022/10/20 02:24:16;;;;;;;5.97;2.87;;;13.00;67.10;;;;;;5083272;28;20185;-59
2022/10/20 02:26:43;;;;;;;8.00;2.77;;;13.00;66.80;;;;;;5092158;28;20185;-59
2022/10/20 02:29:15;;;;;;;5.23;2.63;;;13.00;66.60;;;;;;5071745;28;20200;-59
2022/10/20 02:31:42;;;;;;;6.97;2.70;;;13.00;66.90;;;;;;5093575;28;20275;-59
2022/10/20 02:34:09;;;;;;;5.77;2.80;;;13.00;67.00;;;;;;5062815;28;20276;-60
2022/10/20 02:36:39;;;;;;;4.47;2.90;;;13.00;67.20;;;;;;5086850;28;20234;-60
2022/10/20 02:39:05;;;;;;;3.17;2.47;;;13.00;67.50;;;;;;5093324;28;20235;-60
2022/10/20 02:41:31;;;;;;;4.33;2.33;;;13.00;68.00;;;;;;5091929;28;20233;-59
2022/10/20 02:43:56;;;;;;;3.53;2.70;;;12.90;69.00;;;;;;5077980;28;20351;-59
2022/10/20 02:46:23;;;;;;;5.00;2.77;;;12.90;69.30;;;;;;5086440;28;20184;-59
2022/10/20 02:48:49;;;;;;;5.93;2.57;;;12.90;69.30;;;;;;5084750;28;20182;-59
2022/10/20 02:51:16;;;;;;;3.13;2.50;;;12.90;69.40;;;;;;5074764;28;20203;-59
2022/10/20 02:53:42;;;;;;;4.53;2.20;;;12.90;69.40;;;;;;5091957;28;20193;-59
2022/10/20 02:56:08;;;;;;;5.80;2.87;;;12.90;69.30;;;;;;5072456;28;20193;-59
2022/10/20 02:58:34;;;;;;;9.63;2.53;;;12.90;68.90;;;;;;5112425;28;20231;-60
2022/10/20 03:01:00;;;;;;;5.07;2.53;;;12.90;68.70;;;;;;5089536;28;20195;-59
2022/10/20 03:03:25;;;;;;;3.60;2.80;;;12.90;68.70;;;;;;5086339;28;20197;-59
2022/10/20 03:05:51;;;;;;;2.70;2.50;;;12.90;68.60;;;;;;5077329;28;20188;-59
2022/10/20 03:08:17;;;;;;;4.90;2.73;;;12.90;68.30;;;;;;5093396;28;20271;-59
2022/10/20 03:10:43;;;;;;;6.97;3.93;;;12.90;68.50;;;;;;5074059;28;20334;-59
2022/10/20 03:13:09;;;;;;;5.43;3.97;;;13.00;69.00;;;;;;5064730;28;20189;-59
2022/10/20 03:15:35;;;;;;;4.50;3.40;;;12.90;68.70;;;;;;5080297;28;20279;-60
2022/10/20 03:18:01;;;;;;;3.80;3.40;;;12.90;68.40;;;;;;5080095;28;20192;-60
2022/10/20 03:20:27;;;;;;;4.33;3.20;;;12.90;68.50;;;;;;5092840;28;20200;-59
2022/10/20 03:22:52;;;;;;;3.70;2.80;;;12.80;68.70;;;;;;5076318;28;20244;-59
2022/10/20 03:25:18;;;;;;;5.03;3.77;;;12.80;69.30;;;;;;5061185;28;20189;-59
2022/10/20 03:27:44;;;;;;;3.60;2.80;;;12.80;69.50;;;;;;5078981;28;20185;-59
2022/10/20 03:30:10;;;;;;;4.83;2.43;;;12.80;70.30;;;;;;5075717;28;20247;-60
2022/10/20 03:32:35;;;;;;;3.47;2.93;;;12.80;70.10;;;;;;5074149;28;20192;-60
2022/10/20 03:35:01;;;;;;;4.67;2.93;;;12.90;69.60;;;;;;5076923;28;20277;-60
2022/10/20 03:37:27;;;;;;;4.73;3.00;;;12.70;69.70;;;;;;5074364;28;20218;-60
2022/10/20 03:39:52;;;;;;;3.50;2.77;;;12.60;70.20;;;;;;5064014;28;20333;-60
2022/10/20 03:42:18;;;;;;;4.00;2.90;;;12.70;70.10;;;;;;5082163;28;20220;-60
2022/10/20 03:44:44;;;;;;;8.63;2.90;;;12.80;70.10;;;;;;5075666;28;20223;-60
2022/10/20 03:47:11;;;;;;;3.17;2.57;;;12.70;70.00;;;;;;5091574;28;20195;-60
2022/10/20 03:49:38;;;;;;;14.27;3.00;;;12.70;70.40;;;;;;5078068;28;20185;-60
2022/10/20 03:52:04;;;;;;;4.00;3.00;;;12.80;70.50;;;;;;5076760;28;20193;-60
2022/10/20 03:54:30;;;;;;;4.53;3.03;;;12.80;70.60;;;;;;5065287;28;20191;-60
2022/10/20 03:56:55;;;;;;;4.10;3.27;;;12.80;71.00;;;;;;5074542;28;20283;-60
2022/10/20 03:59:21;;;;;;;5.90;2.63;;;12.90;70.80;;;;;;5088449;28;20281;-60
2022/10/20 04:01:47;;;;;;;5.40;3.00;;;12.80;70.80;;;;;;5066620;28;20217;-60
2022/10/20 04:04:13;;;;;;;2.90;2.60;;;12.70;70.80;;;;;;5074671;28;20188;-60
2022/10/20 04:06:38;;;;;;;3.30;3.00;;;12.70;71.20;;;;;;5089004;28;20200;-60
2022/10/20 04:09:04;;;;;;;6.30;3.73;;;12.70;71.10;;;;;;5087592;28;20241;-60
2022/10/20 04:11:31;;;;;;;5.83;3.70;;;12.70;71.10;;;;;;5064825;28;20204;-60
2022/10/20 04:13:57;;;;;;;4.53;3.10;;;12.70;71.50;;;;;;5081966;28;20245;-60
2022/10/20 04:16:23;;;;;;;6.20;3.33;;;12.70;71.70;;;;;;5074851;28;20263;-60
2022/10/20 04:18:50;;;;;;;8.23;3.30;;;12.80;71.50;;;;;;5073352;28;20203;-60
2022/10/20 04:21:15;;;;;;;6.63;4.20;;;12.80;71.20;;;;;;5073938;28;20227;-60
2022/10/20 04:23:41;;;;;;;6.67;3.50;;;12.70;71.10;;;;;;5075360;28;20185;-60
2022/10/20 04:26:12;;;;;;;4.83;3.70;;;12.70;71.20;;;;;;5077477;28;20195;-59
2022/10/20 04:28:38;;;;;;;6.23;2.97;;;12.80;71.10;;;;;;5089198;28;20238;-60
2022/10/20 04:31:04;;;;;;;3.67;3.30;;;12.80;71.10;;;;;;5076777;28;20189;-59
2022/10/20 04:33:30;;;;;;;5.90;2.97;;;12.80;70.90;;;;;;5079429;28;20270;-59
2022/10/20 04:36:00;;;;;;;8.43;4.03;;;12.80;70.90;;;;;;5100916;28;20216;-59
2022/10/20 04:38:28;;;;;;;5.47;3.03;;;12.80;71.10;;;;;;5084878;28;20185;-59
2022/10/20 04:40:58;;;;;;;8.20;3.40;;;12.80;71.40;;;;;;5093378;28;20276;-59
2022/10/20 04:43:25;;;;;;;7.67;3.53;;;12.80;71.30;;;;;;5085889;28;20285;-59
2022/10/20 04:45:52;;;;;;;6.37;3.50;;;12.80;71.70;;;;;;5094302;28;20216;-59
2022/10/20 04:48:18;;;;;;;4.83;3.30;;;12.80;71.60;;;;;;5099580;28;20282;-59
2022/10/20 04:50:44;;;;;;;3.50;2.90;;;12.80;71.20;;;;;;5072477;28;20287;-59
2022/10/20 04:53:10;;;;;;;8.20;3.23;;;12.80;71.20;;;;;;5114985;28;20180;-59
2022/10/20 04:55:36;;;;;;;4.27;2.80;;;12.70;70.70;;;;;;5083216;28;20207;-59
2022/10/20 04:58:02;;;;;;;5.63;3.27;;;12.70;71.20;;;;;;5068667;28;20240;-59
2022/10/20 05:00:28;;;;;;;8.00;3.07;;;12.70;70.90;;;;;;5065248;28;20221;-59
2022/10/20 05:02:54;;;;;;;5.40;3.27;;;12.70;70.80;;;;;;5084929;28;20212;-59
2022/10/20 05:05:20;;;;;;;4.60;2.50;;;12.70;70.50;;;;;;5077238;28;20185;-59
2022/10/20 05:07:46;;;;;;;6.70;3.07;;;12.70;70.60;;;;;;5061271;28;20196;-59
2022/10/20 05:10:11;;;;;;;10.13;3.10;;;12.80;70.60;;;;;;5072590;28;20279;-59
2022/10/20 05:12:37;;;;;;;4.43;3.67;;;12.80;70.50;;;;;;5087029;28;20198;-59
2022/10/20 05:15:03;;;;;;;3.27;2.90;;;12.70;70.30;;;;;;5068292;28;20189;-59
2022/10/20 05:17:29;;;;;;;5.73;3.03;;;12.70;70.00;;;;;;5095916;28;20242;-59
2022/10/20 05:19:55;;;;;;;4.33;2.70;;;12.70;70.40;;;;;;5094326;28;20200;-59
2022/10/20 05:22:21;;;;;;;4.97;3.00;;;12.70;70.50;;;;;;5087345;28;20209;-59
2022/10/20 05:24:47;;;;;;;3.80;3.10;;;12.70;70.70;;;;;;5099238;28;20188;-59
2022/10/20 05:27:13;;;;;;;7.13;3.57;;;12.80;70.70;;;;;;5087561;28;20193;-59
2022/10/20 05:29:38;;;;;;;5.50;3.17;;;12.80;70.20;;;;;;5072665;28;20236;-59
2022/10/20 05:32:04;;;;;;;3.30;2.90;;;12.80;69.90;;;;;;5086578;28;20274;-59
2022/10/20 05:34:30;;;;;;;6.30;3.17;;;12.80;69.80;;;;;;5079268;28;20214;-59
2022/10/20 05:36:55;;;;;;;4.77;3.20;;;12.60;68.80;;;;;;5092332;28;20268;-59
2022/10/20 05:39:21;;;;;;;4.00;2.53;;;12.60;69.70;;;;;;5064634;28;20189;-60
2022/10/20 05:41:47;;;;;;;4.93;2.70;;;12.60;70.00;;;;;;5091049;28;20229;-59
2022/10/20 05:44:13;;;;;;;6.90;3.30;;;12.60;69.50;;;;;;5085408;28;20193;-59
2022/10/20 05:46:40;;;;;;;5.50;2.93;;;12.60;68.80;;;;;;5069507;28;20212;-59
2022/10/20 05:49:09;;;;;;;4.30;2.60;;;12.60;69.30;;;;;;5085365;28;20213;-59
2022/10/20 05:51:35;;;;;;;6.87;2.83;;;12.70;69.40;;;;;;5094071;28;20189;-59
2022/10/20 05:54:02;;;;;;;5.93;3.03;;;12.70;69.90;;;;;;5091097;28;20193;-59
2022/10/20 05:56:29;;;;;;;5.17;3.03;;;12.80;69.70;;;;;;5086702;28;20254;-59
2022/10/20 05:58:56;;;;;;;4.13;2.90;;;12.80;69.60;;;;;;5086164;28;20192;-59
2022/10/20 06:01:26;;;;;;;5.03;2.53;;;12.80;69.50;;;;;;5079529;28;20268;-59
2022/10/20 06:03:59;;;;;;;4.87;2.90;;;12.80;69.30;;;;;;5092350;28;20189;-59
2022/10/20 06:06:29;;;;;;;7.70;3.17;;;12.80;68.70;;;;;;5057131;28;20181;-59
2022/10/20 06:08:56;;;;;;;8.13;2.83;;;12.80;66.50;;;;;;5076396;28;20239;-59
2022/10/20 06:11:22;;;;;;;4.77;2.93;;;12.70;67.10;;;;;;5069684;28;20192;-59
2022/10/20 06:13:48;;;;;;;3.93;2.50;;;12.70;66.60;;;;;;5075432;28;20220;-59
2022/10/20 06:16:18;;;;;;;5.57;2.67;;;12.80;67.50;;;;;;5069311;28;20221;-59
2022/10/20 06:18:44;;;;;;;5.20;3.00;;;12.70;68.20;;;;;;5086895;28;20189;-59
2022/10/20 06:21:15;;;;;;;5.23;2.83;;;12.60;67.00;;;;;;5042955;28;20193;-59
2022/10/20 06:23:40;;;;;;;6.37;3.27;;;12.70;67.70;;;;;;5073172;28;20190;-59
2022/10/20 06:26:12;;;;;;;3.03;2.63;;;12.60;65.40;;;;;;5063077;28;20289;-59
2022/10/20 06:28:39;;;;;;;4.43;3.10;;;12.30;65.90;;;;;;5072073;28;20193;-59
2022/10/20 06:31:16;;;;;;;3.93;2.93;;;12.30;66.80;;;;;;5075599;28;20184;-59
2022/10/20 06:33:43;;;;;;;3.67;2.90;;;12.40;66.00;;;;;;5090714;28;20268;-59
2022/10/20 06:36:10;;;;;;;8.67;3.90;;;12.50;65.80;;;;;;5073113;28;20192;-59
2022/10/20 06:38:37;;;;;;;20.40;5.83;;;12.70;66.50;;;;;;5073866;28;20197;-59
2022/10/20 06:41:05;;;;;;;7.23;3.23;;;12.70;66.40;;;;;;5059496;28;20230;-59
2022/10/20 06:43:30;;;;;;;9.87;3.50;;;12.50;65.80;;;;;;5066619;28;20186;-59
2022/10/20 06:46:02;;;;;;;8.27;3.73;;;12.60;66.10;;;;;;5036882;28;20183;-59
2022/10/20 06:48:29;;;;;;;65.13;9.87;;;12.70;65.90;;;;;;5054306;28;20182;-59
2022/10/20 06:51:15;;;;;;;20.77;5.90;;;12.80;66.80;;;;;;5056956;28;20196;-59
2022/10/20 06:53:42;;;;;;;41.20;6.10;;;12.80;66.00;;;;;;5058820;28;20186;-59
2022/10/20 06:56:11;;;;;;;18.93;4.30;;;12.90;66.20;;;;;;5040804;28;20201;-59
2022/10/20 06:58:38;;;;;;;20.90;4.13;;;12.90;64.70;;;;;;5047022;28;20190;-59
2022/10/20 07:01:08;;;;;;;13.17;4.33;;;12.70;65.30;;;;;;5052188;28;20210;-59
2022/10/20 07:03:35;;;;;;;14.73;4.13;;;12.60;65.70;;;;;;5064084;28;20179;-59
2022/10/20 07:06:01;;;;;;;29.97;5.50;;;12.80;66.20;;;;;;5051449;28;20190;-59
2022/10/20 07:08:29;;;;;;;18.10;4.70;;;12.80;64.50;;;;;;5043169;28;20232;-59
2022/10/20 07:11:02;;;;;;;22.80;4.07;;;12.80;65.50;;;;;;5051737;28;20285;-59
2022/10/20 07:13:28;;;;;;;23.17;5.60;;;12.90;63.80;;;;;;5048455;28;20224;-59
2022/10/20 07:15:55;;;;;;;6.73;3.10;;;12.80;64.10;;;;;;5021772;28;20222;-59
2022/10/20 07:18:22;;;;;;;65.43;9.73;;;12.80;63.70;;;;;;5068718;28;20178;-59
2022/10/20 07:20:48;;;;;;;18.53;4.33;;;12.90;63.80;;;;;;5030777;28;20213;-59
2022/10/20 07:23:14;;;;;;;52.90;8.33;;;12.90;64.00;;;;;;5040973;28;20210;-59
2022/10/20 07:25:39;;;;;;;78.80;12.67;;;12.90;64.30;;;;;;5050904;28;20185;-59
2022/10/20 07:28:05;;;;;;;6.10;3.00;;;13.10;64.50;;;;;;5050979;28;20206;-59
2022/10/20 07:30:31;;;;;;;9.83;4.07;;;12.80;62.40;;;;;;5047950;28;20192;-59
2022/10/20 07:32:56;;;;;;;7.17;3.40;;;12.80;64.00;;;;;;5053205;28;20644;-59
2022/10/20 07:35:22;;;;;;;35.37;6.97;;;13.00;64.70;;;;;;5037626;28;20312;-59
2022/10/20 07:37:49;;;;;;;8.37;3.00;;;13.20;64.60;;;;;;5021755;28;20186;-59
2022/10/20 07:40:15;;;;;;;10.53;3.20;;;12.80;62.50;;;;;;5058373;28;20266;-59
2022/10/20 07:42:40;;;;;;;19.43;3.90;;;12.80;63.00;;;;;;5083280;28;20235;-60
2022/10/20 07:45:07;;;;;;;8.13;2.83;;;12.80;63.90;;;;;;5042676;28;20197;-59
2022/10/20 07:47:32;;;;;;;5.53;3.10;;;13.00;64.30;;;;;;5068245;28;20185;-59
2022/10/20 07:49:58;;;;;;;8.97;3.33;;;13.10;62.50;;;;;;5058511;28;20240;-59
2022/10/20 07:52:23;;;;;;;4.53;2.90;;;13.20;64.00;;;;;;5084201;28;20196;-59
2022/10/20 07:54:49;;;;;;;18.93;3.90;;;13.20;61.40;;;;;;5077860;28;20218;-59
2022/10/20 07:57:15;;;;;;;8.27;3.60;;;13.10;61.00;;;;;;5079156;28;20225;-59
2022/10/20 07:59:41;;;;;;;14.33;4.57;;;13.20;63.10;;;;;;5067421;28;20287;-60
2022/10/20 08:02:06;;;;;;;16.10;3.97;;;13.20;62.10;;;;;;5064927;28;20213;-59
2022/10/20 08:04:32;;;;;;;12.40;3.03;;;13.10;61.40;;;;;;5068002;28;20250;-58
2022/10/20 08:06:58;;;;;;;11.60;3.33;;;12.90;60.90;;;;;;5072896;28;20213;-58
2022/10/20 08:09:25;;;;;;;9.13;2.43;;;13.00;60.70;;;;;;5064012;28;20185;-58
2022/10/20 08:11:51;;;;;;;7.10;2.37;;;13.20;62.10;;;;;;5107558;28;20185;-59
2022/10/20 08:14:17;;;;;;;31.70;5.90;;;13.30;59.20;;;;;;5095525;28;20195;-59
2022/10/20 08:16:42;;;;;;;9.53;3.40;;;13.30;60.60;;;;;;5093981;28;20191;-58
2022/10/20 08:19:08;;;;;;;12.63;3.20;;;13.30;60.90;;;;;;5076487;28;20193;-58
2022/10/20 08:21:33;;;;;;;25.33;6.10;;;13.30;61.70;;;;;;5065749;28;20219;-58
2022/10/20 08:24:01;;;;;;;22.07;5.53;;;13.50;61.30;;;;;;5094377;28;20229;-58
2022/10/20 08:26:27;;;;;;;18.13;4.33;;;13.60;62.10;;;;;;5073364;28;20193;-59
2022/10/20 08:28:53;;;;;;;3.17;1.87;;;13.60;62.40;;;;;;5064715;28;20196;-59
2022/10/20 08:31:20;;;;;;;4.40;2.17;;;13.60;60.60;;;;;;5074010;28;20184;-59
2022/10/20 08:33:46;;;;;;;9.07;2.53;;;13.70;59.50;;;;;;5083904;28;20181;-59
2022/10/20 08:36:13;;;;;;;5.13;2.30;;;13.80;59.10;;;;;;5083695;28;20271;-59
2022/10/20 08:38:40;;;;;;;6.53;2.13;;;13.80;59.20;;;;;;5093925;28;20176;-59
2022/10/20 08:41:14;;;;;;;11.40;4.60;;;13.90;59.40;;;;;;5100930;28;20229;-59
2022/10/20 08:43:41;;;;;;;6.67;2.43;;;14.00;59.10;;;;;;5101665;28;20232;-59
2022/10/20 08:46:14;;;;;;;2.20;1.93;;;14.10;57.50;;;;;;5075621;28;20254;-59
2022/10/20 08:48:41;;;;;;;11.03;3.80;;;13.70;58.00;;;;;;5091205;28;20264;-59
2022/10/20 08:51:19;;;;;;;3.70;2.00;;;13.70;58.50;;;;;;5088802;28;20275;-59
2022/10/20 08:53:47;;;;;;;3.10;2.10;;;13.30;58.40;;;;;;5105116;28;20223;-59
2022/10/20 08:56:14;;;;;;;3.10;2.37;;;13.30;57.60;;;;;;5105963;28;20180;-59
2022/10/20 08:58:43;;;;;;;3.07;2.10;;;13.30;58.30;;;;;;5106435;28;20196;-59
2022/10/20 09:01:28;;;;;;;7.13;2.40;;;13.50;58.90;;;;;;5088820;28;20184;-59
2022/10/20 09:03:58;;;;;;;3.20;2.30;;;13.60;57.40;;;;;;5091639;28;20199;-59
2022/10/20 09:06:24;;;;;;;4.50;2.10;;;13.40;57.60;;;;;;5092057;28;20174;-59
2022/10/20 09:08:50;;;;;;;5.07;2.83;;;13.40;58.30;;;;;;5057851;28;20192;-59
2022/10/20 09:11:22;;;;;;;8.17;2.70;;;13.30;59.20;;;;;;5076626;28;20196;-59
2022/10/20 09:13:47;;;;;;;3.77;2.30;;;13.40;58.80;;;;;;5106346;28;20269;-59
2022/10/20 09:16:24;;;;;;;7.53;2.67;;;13.60;57.60;;;;;;5070799;28;20272;-59
2022/10/20 09:18:58;;;;;;;5.53;2.33;;;13.70;58.30;;;;;;5077264;28;20192;-59
2022/10/20 09:21:24;;;;;;;2.70;2.00;;;13.70;58.60;;;;;;5093679;28;20191;-59
2022/10/20 09:24:00;;;;;;;4.07;2.40;;;13.90;58.70;;;;;;5087435;28;20181;-59
2022/10/20 09:26:47;;;;;;;4.83;2.20;;;14.00;56.60;;;;;;5100153;28;20181;-59
2022/10/20 09:29:17;;;;;;;6.00;2.10;;;14.10;57.00;;;;;;5094333;28;20177;-59
2022/10/20 09:31:52;;;;;;;2.20;2.00;;;14.20;55.90;;;;;;5096396;28;20188;-59
2022/10/20 09:34:25;;;;;;;6.80;3.20;;;14.20;56.90;;;;;;5097827;28;20195;-59
2022/10/20 09:37:02;;;;;;;9.90;3.40;;;14.30;57.50;;;;;;5095573;28;20184;-59
2022/10/20 09:39:43;;;;;;;5.70;3.07;;;14.50;57.40;;;;;;5095351;28;20215;-59
2022/10/20 09:42:17;;;;;;;16.13;6.43;;;14.50;57.60;;;;;;5097316;28;20231;-58
2022/10/20 09:44:53;;;;;;;6.27;2.90;;;14.70;58.00;;;;;;5114176;28;20173;-58
2022/10/20 09:47:21;;;;;;;5.90;3.20;;;14.80;57.00;;;;;;5110718;28;20184;-57
2022/10/20 09:49:54;;;;;;;3.87;2.20;;;14.80;55.80;;;;;;5104393;28;20189;-57
2022/10/20 09:52:24;;;;;;;2.87;2.13;;;14.30;56.50;;;;;;5096604;28;20191;-57
2022/10/20 09:54:52;;;;;;;4.70;2.33;;;14.50;53.90;;;;;;5088406;28;20185;-60
2022/10/20 09:57:20;;;;;;;3.97;2.47;;;14.30;56.40;;;;;;5086179;28;20197;-61
2022/10/20 09:59:49;;;;;;;9.10;3.27;;;14.50;55.30;;;;;;5091182;28;20283;-59
2022/10/20 10:02:15;;;;;;;4.20;2.37;;;14.80;55.70;;;;;;5088945;28;20212;-59
2022/10/20 10:04:46;;;;;;;3.30;2.30;;;14.70;54.00;;;;;;5096969;28;20173;-59
2022/10/20 10:07:24;;;;;;;4.03;1.90;;;14.80;54.40;;;;;;5092060;28;20181;-59
2022/10/20 10:09:56;;;;;;;2.33;2.07;;;15.00;54.80;;;;;;5096852;28;20188;-59
2022/10/20 10:12:23;;;;;;;5.23;2.13;;;15.20;54.40;;;;;;5096338;28;20216;-59
2022/10/20 10:15:00;;;;;;;3.23;2.00;;;15.20;54.40;;;;;;5098028;28;20193;-59
2022/10/20 10:17:40;;;;;;;3.13;2.13;;;14.80;54.20;;;;;;5091114;28;20194;-59
2022/10/20 10:20:31;;;;;;;2.83;2.17;;;14.70;53.00;;;;;;5093607;28;20185;-60
2022/10/20 10:23:25;;;;;;;3.77;2.03;;;14.30;53.70;;;;;;5089901;28;20223;-59
2022/10/20 10:25:51;;;;;;;4.47;2.33;;;14.50;55.00;;;;;;5094081;28;20220;-60
2022/10/20 10:28:38;;;;;;;2.70;1.97;;;14.80;54.50;;;;;;5097081;28;20253;-59
2022/10/20 10:31:24;;;;;;;5.40;2.80;;;14.50;53.90;;;;;;5087135;28;20184;-59
2022/10/20 10:34:01;;;;;;;3.47;2.40;;;14.60;54.90;;;;;;5103980;28;20195;-59
2022/10/20 10:36:35;;;;;;;4.30;2.57;;;14.80;54.70;;;;;;5113239;28;20214;-59
2022/10/20 10:39:03;;;;;;;3.43;2.20;;;14.90;54.80;;;;;;5094799;28;20190;-58
2022/10/20 10:41:36;;;;;;;3.73;2.10;;;14.50;54.90;;;;;;5107254;28;20298;-58
2022/10/20 10:44:23;;;;;;;2.80;2.43;;;14.60;56.30;;;;;;5103334;28;20237;-58
2022/10/20 10:47:06;;;;;;;3.13;2.17;;;14.70;55.10;;;;;;5095046;28;20193;-58
2022/10/20 10:50:02;;;;;;;6.43;2.63;;;14.80;55.70;;;;;;5090804;28;20186;-58
2022/10/20 10:52:44;;;;;;;3.60;2.50;;;14.90;56.40;;;;;;5085054;28;20192;-58
2022/10/20 10:55:26;;;;;;;8.27;2.17;;;15.10;53.90;;;;;;5094879;28;20188;-58
2022/10/20 10:58:04;;;;;;;7.17;2.63;;;14.80;55.20;;;;;;5093338;28;20199;-57
2022/10/20 11:01:02;;;;;;;4.63;2.83;;;14.90;55.60;;;;;;5110194;28;20181;-59
2022/10/20 11:03:49;;;;;;;4.33;2.50;;;14.90;56.40;;;;;;5050039;28;20231;-58
2022/10/20 11:06:30;;;;;;;5.17;2.60;;;14.80;55.20;;;;;;5092721;28;20189;-58
2022/10/20 11:09:12;;;;;;;3.73;2.30;;;15.10;56.00;;;;;;5093934;28;20191;-58
2022/10/20 11:11:49;;;;;;;7.03;2.87;;;15.30;56.70;;;;;;5088955;28;20211;-58
2022/10/20 11:14:36;;;;;;;6.13;3.27;;;15.30;53.60;;;;;;5097147;28;20219;-59
2022/10/20 11:17:17;;;;;;;4.53;2.80;;;14.80;55.20;;;;;;5095049;28;20192;-59
2022/10/20 11:20:07;;;;;;;5.10;2.73;;;15.00;55.00;;;;;;5114307;28;20184;-59
2022/10/20 11:22:39;;;;;;;4.10;2.60;;;15.00;55.20;;;;;;5080605;28;20243;-59
2022/10/20 11:25:33;;;;;;;3.40;3.03;;;15.30;56.00;;;;;;5095590;28;20188;-59
2022/10/20 11:27:59;;;;;;;7.97;3.43;;;15.60;55.10;;;;;;5092797;28;20201;-59
2022/10/20 11:30:26;;;;;;;4.63;2.13;;;15.50;54.60;;;;;;5086700;27;20301;-59
2022/10/20 11:33:17;;;;;;;7.47;3.10;;;15.20;54.50;;;;;;5087170;28;20192;-59
2022/10/20 11:36:05;;;;;;;6.03;3.13;;;15.30;55.70;;;;;;5095227;28;20192;-59
2022/10/20 11:38:40;;;;;;;6.00;2.67;;;14.90;55.60;;;;;;5094051;28;20193;-59
2022/10/20 11:41:17;;;;;;;3.40;2.83;;;15.10;54.60;;;;;;5098782;28;20227;-60
2022/10/20 11:44:12;;;;;;;3.73;3.37;;;14.90;56.60;;;;;;5091655;28;20288;-59
2022/10/20 11:47:13;;;;;;;7.53;3.33;;;14.90;56.80;;;;;;5093188;28;20212;-60
2022/10/20 11:49:40;;;;;;;6.80;3.30;;;14.70;55.50;;;;;;5052163;28;20292;-59
2022/10/20 11:52:39;;;;;;;5.13;2.90;;;14.70;57.60;;;;;;5050639;28;20205;-59
2022/10/20 11:55:37;;;;;;;9.57;3.40;;;14.70;56.60;;;;;;5112159;28;20177;-59
2022/10/20 11:58:20;;;;;;;4.53;2.83;;;14.70;57.40;;;;;;5075739;28;20205;-59
2022/10/20 12:00:49;;;;;;;3.90;2.87;;;14.80;57.30;;;;;;5087948;28;20189;-60
2022/10/20 12:03:45;;;;;;;5.50;2.90;;;14.80;56.90;;;;;;5108326;28;20269;-59
2022/10/20 12:06:33;;;;;;;8.60;4.60;;;15.00;56.90;;;;;;5090505;28;20185;-60
2022/10/20 12:09:16;;;;;;;5.83;3.20;;;14.90;56.70;;;;;;5105344;28;20189;-59
2022/10/20 12:11:49;;;;;;;6.70;3.17;;;15.00;56.80;;;;;;5086765;28;20185;-59
2022/10/20 12:14:14;;;;;;;6.03;2.93;;;15.20;57.70;;;;;;5090972;28;20189;-59
2022/10/20 12:16:52;;;;;;;4.43;3.60;;;15.20;57.50;;;;;;5112325;28;20191;-59
2022/10/20 12:19:23;;;;;;;6.40;3.30;;;15.20;58.10;;;;;;5111750;28;20213;-59
2022/10/20 12:22:12;;;;;;;9.40;3.27;;;14.90;58.80;;;;;;5106534;28;20208;-59
2022/10/20 12:24:39;;;;;;;6.77;4.57;;;15.00;58.00;;;;;;5088517;28;20207;-59
2022/10/20 12:27:08;;;;;;;6.03;3.70;;;15.10;59.50;;;;;;5081236;28;20189;-59
2022/10/20 12:29:34;;;;;;;8.80;4.33;;;15.00;59.30;;;;;;5094908;28;20267;-59
2022/10/20 12:32:23;;;;;;;13.73;6.40;;;15.10;60.00;;;;;;5103338;28;20267;-59
2022/10/20 12:34:53;;;;;;;6.03;3.67;;;15.20;60.10;;;;;;5082090;28;20185;-59
2022/10/20 12:37:39;;;;;;;13.73;6.13;;;14.90;59.30;;;;;;5095499;28;20234;-59
2022/10/20 12:40:08;;;;;;;9.90;5.50;;;14.90;60.80;;;;;;5078775;28;20228;-59
2022/10/20 12:42:38;;;;;;;11.00;5.27;;;15.10;60.30;;;;;;5087104;28;20218;-59
2022/10/20 12:45:06;;;;;;;9.73;5.10;;;15.10;60.00;;;;;;5089555;28;20185;-60
2022/10/20 12:47:36;;;;;;;9.40;5.50;;;15.00;61.20;;;;;;5083775;28;20205;-60
2022/10/20 12:50:07;;;;;;;8.77;4.47;;;15.00;61.30;;;;;;5087158;28;20185;-60
2022/10/20 12:52:37;;;;;;;9.50;4.40;;;15.10;60.90;;;;;;5085991;28;20180;-59
2022/10/20 12:55:17;;;;;;;8.67;4.80;;;15.20;60.10;;;;;;5081531;28;20269;-54
2022/10/20 12:57:44;;;;;;;20.97;7.37;;;14.90;59.60;;;;;;5103849;28;20276;-59
2022/10/20 13:00:18;;;;;;;13.30;5.83;;;15.00;61.30;;;;;;5094815;28;20192;-59
2022/10/20 13:02:51;;;;;;;7.53;3.77;;;15.10;61.40;;;;;;5085704;28;20216;-57
2022/10/20 13:05:17;;;;;;;7.07;4.23;;;14.90;59.90;;;;;;5096330;28;20210;-59